Time;durP1;ratioP1;P1;durP2;ratioP2;P2;SDS_P1;SDS_P2;PMS_P1;PMS_P2;Temp;Humidity;BMP_temperature;BMP_pressure;BME280_temperature;BME280_humidity;BME280_pressure;Samples;Min_cycle;Max_cycle;Signal;HPM_P1;HPM_P2
2023/05/07 00:00:59;;;;;;;4.70;2.70;;;;;;;9.98;37.45;101414.09;110998;1236;72404;-88
2023/05/07 00:03:26;;;;;;;5.20;2.80;;;;;;;9.96;37.76;101404.58;111039;1234;72162;-90
2023/05/07 00:05:53;;;;;;;6.30;2.80;;;;;;;9.95;37.67;101410.48;110983;1235;61133;-89
2023/05/07 00:08:22;;;;;;;6.70;2.70;;;;;;;9.93;37.90;101411.08;111015;1233;61063;-88
2023/05/07 00:10:48;;;;;;;4.60;2.50;;;;;;;9.91;37.85;101410.50;110898;1233;73239;-87
2023/05/07 00:13:16;;;;;;;5.70;2.60;;;;;;;9.91;37.85;101410.22;111104;1235;72775;-88
2023/05/07 00:15:43;;;;;;;5.30;2.70;;;;;;;9.90;37.81;101408.70;111004;1233;72239;-87
2023/05/07 00:18:09;;;;;;;5.80;2.90;;;;;;;9.89;37.88;101408.05;111086;1233;61249;-88
2023/05/07 00:20:36;;;;;;;6.30;2.80;;;;;;;9.88;37.90;101405.34;111114;1234;61123;-90
2023/05/07 00:23:03;;;;;;;6.60;2.70;;;;;;;9.86;37.85;101405.70;111054;1233;75752;-89
2023/05/07 00:25:30;;;;;;;5.00;2.50;;;;;;;9.84;37.68;101400.48;111019;1233;71594;-88
2023/05/07 00:28:02;;;;;;;7.70;2.50;;;;;;;9.82;37.55;101395.67;111089;1233;72853;-88
2023/05/07 00:30:29;;;;;;;;;;;;;;;9.81;37.59;101393.73;111095;1234;60521;-87
2023/05/07 00:32:56;;;;;;;6.90;3.00;;;;;;;9.80;37.65;101390.29;111070;1233;61117;-86
2023/05/07 00:35:23;;;;;;;7.50;2.90;;;;;;;9.77;37.67;101391.88;111044;1233;74616;-87
2023/05/07 00:37:49;;;;;;;6.10;3.00;;;;;;;9.75;37.70;101395.63;111041;1233;72487;-87
2023/05/07 00:40:16;;;;;;;7.50;2.90;;;;;;;9.75;37.87;101395.19;111068;1237;73884;-87
2023/05/07 00:42:46;;;;;;;6.90;2.60;;;;;;;9.75;37.92;101398.13;111067;1233;60085;-87
2023/05/07 00:45:14;;;;;;;4.80;2.60;;;;;;;9.75;37.82;101403.52;111019;1234;61237;-87
2023/05/07 00:47:41;;;;;;;5.60;2.70;;;;;;;9.73;37.67;101399.61;111077;1234;74878;-87
2023/05/07 00:50:09;;;;;;;5.40;2.90;;;;;;;9.71;37.93;101403.16;110932;1233;71864;-88
2023/05/07 00:52:37;;;;;;;6.50;2.90;;;;;;;9.72;38.91;101405.46;110985;1237;71186;-87
2023/05/07 00:55:07;;;;;;;5.70;3.00;;;;;;;9.72;39.49;101407.71;111021;1236;61998;-88
2023/05/07 00:57:37;;;;;;;9.70;3.60;;;;;;;9.72;39.45;101411.45;111055;1236;61079;-87
2023/05/07 01:00:05;;;;;;;5.70;2.70;;;;;;;9.72;39.59;101411.45;111058;1236;76259;-87
2023/05/07 01:02:33;;;;;;;4.30;2.40;;;;;;;9.73;39.41;101416.63;110862;1235;73358;-87
2023/05/07 01:05:00;;;;;;;5.10;2.50;;;;;;;9.73;39.42;101420.90;111033;1233;71650;-87
2023/05/07 01:07:31;;;;;;;6.00;2.50;;;;;;;9.72;39.33;101424.99;110842;1233;61182;-88
2023/05/07 01:09:58;;;;;;;5.70;2.70;;;;;;;9.70;39.19;101427.23;111326;1233;61228;-86
2023/05/07 01:12:25;;;;;;;6.00;2.70;;;;;;;9.68;39.17;101426.16;110994;1235;76085;-88
2023/05/07 01:14:52;;;;;;;5.20;2.60;;;;;;;9.68;39.11;101425.02;110941;1234;71083;-88
2023/05/07 01:17:20;;;;;;;5.60;2.70;;;;;;;9.66;39.07;101424.83;111033;1234;71712;-87
2023/05/07 01:19:48;;;;;;;5.90;2.70;;;;;;;9.64;39.14;101423.64;110980;1233;60993;-89
2023/05/07 01:22:23;;;;;;;5.00;2.50;;;;;;;9.61;39.19;101428.52;111094;1234;59522;-89
2023/05/07 01:24:50;;;;;;;5.80;2.50;;;;;;;9.59;39.44;101424.20;111032;1234;74185;-89
2023/05/07 01:27:16;;;;;;;5.80;2.70;;;;;;;9.56;39.48;101423.17;110930;1234;72864;-90
2023/05/07 01:29:43;;;;;;;6.10;2.90;;;;;;;9.57;39.41;101425.95;110820;1235;72511;-88
2023/05/07 01:32:11;;;;;;;7.00;2.80;;;;;;;9.57;40.08;101424.48;110995;1234;61050;-89
2023/05/07 01:34:38;;;;;;;7.90;3.20;;;;;;;9.54;39.79;101427.34;110957;1233;61092;-90
2023/05/07 01:37:05;;;;;;;7.20;3.10;;;;;;;9.52;39.72;101428.41;110817;1234;74951;-88
2023/05/07 01:39:32;;;;;;;6.30;2.90;;;;;;;9.49;40.05;101430.09;110980;1233;73931;-88
2023/05/07 01:42:01;;;;;;;6.40;2.80;;;;;;;9.46;40.57;101426.38;110797;1237;70503;-90
2023/05/07 01:44:29;;;;;;;7.60;3.10;;;;;;;9.43;40.66;101426.77;110917;1233;61229;-90
2023/05/07 01:46:56;;;;;;;5.40;3.00;;;;;;;9.38;40.99;101427.23;110916;1233;60997;-89
2023/05/07 01:49:24;;;;;;;7.30;3.00;;;;;;;9.32;41.02;101430.14;110782;1234;74652;-87
2023/05/07 01:51:51;;;;;;;7.20;2.90;;;;;;;9.31;40.69;101429.16;110936;1233;72060;-88
2023/05/07 01:54:17;;;;;;;6.70;3.00;;;;;;;9.30;40.92;101432.73;111075;1233;70812;-87
2023/05/07 01:56:48;;;;;;;7.50;3.10;;;;;;;9.29;41.15;101437.69;111054;1234;61190;-89
2023/05/07 01:59:15;;;;;;;5.30;2.70;;;;;;;9.26;41.18;101441.26;111014;1233;59561;-88
2023/05/07 02:01:42;;;;;;;5.70;2.70;;;;;;;9.23;41.02;101443.80;111127;1235;73834;-87
2023/05/07 02:04:09;;;;;;;4.80;2.60;;;;;;;9.22;40.87;101439.02;110993;1234;71027;-89
2023/05/07 02:06:36;;;;;;;5.70;3.20;;;;;;;9.22;40.92;101442.29;111112;1234;73583;-87
2023/05/07 02:09:05;;;;;;;7.20;2.70;;;;;;;9.23;41.06;101449.66;111019;1233;61223;-88
2023/05/07 02:11:32;;;;;;;7.20;2.90;;;;;;;9.22;41.04;101455.39;111045;1234;61192;-89
2023/05/07 02:13:59;;;;;;;6.70;2.90;;;;;;;9.20;40.85;101456.63;110961;1233;74944;-88
2023/05/07 02:16:26;;;;;;;6.10;2.50;;;;;;;9.21;41.29;101455.02;111096;1233;70978;-88
2023/05/07 02:18:54;;;;;;;6.30;2.90;;;;;;;9.20;40.92;101455.27;111058;1233;70764;-90
2023/05/07 02:21:21;;;;;;;5.90;3.00;;;;;;;9.19;40.19;101459.38;111055;1237;59843;-88
2023/05/07 02:23:48;;;;;;;6.80;3.00;;;;;;;9.17;39.96;101457.41;110895;1233;60334;-89
2023/05/07 02:26:15;;;;;;;6.00;2.70;;;;;;;9.16;40.05;101457.80;110902;1238;72390;-89
2023/05/07 02:28:42;;;;;;;4.60;2.60;;;;;;;9.15;40.20;101457.44;111018;1234;73842;-89
2023/05/07 02:31:10;;;;;;;6.20;2.80;;;;;;;9.14;40.49;101455.63;110979;1237;73820;-90
2023/05/07 02:33:38;;;;;;;5.30;2.60;;;;;;;9.15;40.55;101457.27;111047;1233;61131;-90
2023/05/07 02:36:08;;;;;;;7.20;2.90;;;;;;;9.16;40.76;101460.53;111086;1233;60184;-89
2023/05/07 02:38:36;;;;;;;5.30;2.80;;;;;;;9.15;40.92;101468.23;111073;1235;74292;-90
2023/05/07 02:41:04;;;;;;;5.70;3.10;;;;;;;9.14;41.30;101473.11;111089;1233;72244;-88
2023/05/07 02:43:32;;;;;;;5.50;2.70;;;;;;;9.11;40.97;101473.73;111114;1233;73640;-88
2023/05/07 02:46:07;;;;;;;7.80;3.00;;;;;;;9.13;41.01;101482.88;111001;1233;61103;-88
2023/05/07 02:48:36;;;;;;;7.40;3.40;;;;;;;9.13;41.16;101488.63;111025;1234;61305;-87
2023/05/07 02:51:04;;;;;;;7.30;2.70;;;;;;;9.13;41.05;101487.67;110948;1233;75153;-88
2023/05/07 02:53:32;;;;;;;5.30;2.60;;;;;;;9.13;41.13;101479.52;110892;1238;73753;-89
2023/05/07 02:55:59;;;;;;;5.60;3.20;;;;;;;9.11;41.23;101481.52;111081;1233;71784;-91
2023/05/07 02:58:26;;;;;;;5.50;3.00;;;;;;;9.12;41.25;101483.08;110907;1235;61210;-89
2023/05/07 03:00:54;;;;;;;5.80;2.80;;;;;;;9.10;41.39;101486.48;111056;1234;61062;-89
2023/05/07 03:03:41;;;;;;;6.20;3.00;;;;;;;9.09;41.38;101485.18;110995;1235;75206;-90
2023/05/07 03:06:08;;;;;;;7.20;2.90;;;;;;;9.11;41.37;101486.59;110968;1238;72345;-88
2023/05/07 03:08:36;;;;;;;7.30;3.10;;;;;;;9.14;41.55;101493.85;111128;1233;71839;-89
2023/05/07 03:11:04;;;;;;;8.70;2.90;;;;;;;9.15;41.50;101496.22;110961;1234;61139;-89
2023/05/07 03:13:31;;;;;;;5.40;2.90;;;;;;;9.17;41.44;101498.98;110958;1233;61091;-90
2023/05/07 03:15:58;;;;;;;6.20;2.90;;;;;;;9.19;41.46;101501.05;111014;1234;74745;-89
2023/05/07 03:18:25;;;;;;;7.40;3.20;;;;;;;9.23;41.39;101502.13;111071;1234;73800;-89
2023/05/07 03:20:52;;;;;;;5.70;2.70;;;;;;;9.26;41.30;101506.42;111044;1233;70264;-89
2023/05/07 03:23:20;;;;;;;6.20;2.80;;;;;;;9.29;41.45;101510.04;111027;1233;61436;-89
2023/05/07 03:25:50;;;;;;;6.20;2.60;;;;;;;9.33;41.45;101513.88;111088;1234;60051;-89
2023/05/07 03:28:17;;;;;;;6.90;3.00;;;;;;;9.44;41.38;101518.95;111072;1233;74607;-90
2023/05/07 03:30:50;;;;;;;4.60;2.40;;;;;;;9.52;41.15;101521.10;111071;1233;73342;-90
2023/05/07 03:33:17;;;;;;;5.50;2.70;;;;;;;9.49;41.19;101528.70;110927;1233;70721;-88
2023/05/07 03:35:44;;;;;;;5.70;3.00;;;;;;;9.53;41.34;101531.63;110800;1234;61184;-89
2023/05/07 03:38:15;;;;;;;5.30;2.50;;;;;;;9.58;41.41;101527.70;110904;1233;61169;-89
2023/05/07 03:40:42;;;;;;;7.20;2.90;;;;;;;9.62;41.45;101531.13;111016;1233;72307;-90
2023/05/07 03:43:11;;;;;;;5.30;2.80;;;;;;;9.65;41.65;101529.28;111265;1234;74282;-91
2023/05/07 03:45:40;;;;;;;6.00;3.10;;;;;;;9.63;41.68;101528.00;110972;1237;72547;-89
2023/05/07 03:48:14;;;;;;;5.50;3.00;;;;;;;9.61;41.64;101529.88;111030;1234;59226;-90
2023/05/07 03:50:42;;;;;;;6.50;3.30;;;;;;;9.59;41.65;101526.98;110885;1235;61351;-90
2023/05/07 03:53:09;;;;;;;5.80;2.70;;;;;;;9.57;41.47;101524.79;110843;1239;75745;-88
2023/05/07 03:55:39;;;;;;;4.30;2.70;;;;;;;9.55;41.40;101530.73;111065;1236;73363;-88
2023/05/07 03:58:06;;;;;;;5.40;2.90;;;;;;;9.56;41.44;101532.20;111080;1232;71685;-89
2023/05/07 04:00:37;;;;;;;4.70;3.20;;;;;;;9.59;41.54;101533.52;110925;1234;61236;-89
2023/05/07 04:03:08;;;;;;;6.00;2.90;;;;;;;9.63;41.50;101533.88;111061;1234;61836;-90
2023/05/07 04:05:35;;;;;;;4.70;2.90;;;;;;;9.68;41.41;101539.27;110985;1235;73293;-89
2023/05/07 04:08:03;;;;;;;6.30;2.90;;;;;;;9.74;41.42;101540.86;111126;1234;72677;-89
2023/05/07 04:10:37;;;;;;;4.60;2.40;;;;;;;9.77;41.33;101543.61;110961;1233;73746;-91
2023/05/07 04:13:08;;;;;;;6.20;2.90;;;;;;;9.80;41.32;101545.94;111140;1232;60287;-89
2023/05/07 04:15:36;;;;;;;6.20;3.10;;;;;;;9.84;41.23;101545.05;111077;1233;61194;-87
2023/05/07 04:18:06;;;;;;;7.40;2.90;;;;;;;9.87;40.75;101542.81;111097;1233;75733;-88
2023/05/07 04:20:34;;;;;;;5.40;3.20;;;;;;;9.89;41.00;101539.73;111145;1234;72689;-86
2023/05/07 04:23:02;;;;;;;5.30;2.80;;;;;;;9.92;41.28;101540.85;111071;1234;71522;-91
2023/05/07 04:25:30;;;;;;;4.90;2.80;;;;;;;9.91;41.03;101539.44;111123;1237;61217;-87
2023/05/07 04:28:02;;;;;;;6.30;3.00;;;;;;;9.89;41.00;101537.73;111017;1233;59269;-88
2023/05/07 04:30:30;;;;;;;5.40;3.10;;;;;;;9.92;41.03;101542.30;110989;1233;74564;-89
2023/05/07 04:32:57;;;;;;;5.30;2.70;;;;;;;9.92;41.03;101539.20;111036;1233;71720;-88
2023/05/07 04:35:27;;;;;;;4.50;2.50;;;;;;;9.93;41.17;101540.25;111011;1233;73326;-89
2023/05/07 04:37:54;;;;;;;5.60;3.00;;;;;;;9.96;41.08;101538.95;111019;1233;61009;-87
2023/05/07 04:40:21;;;;;;;5.20;2.80;;;;;;;9.98;41.06;101533.48;110933;1232;61130;-87
2023/05/07 04:42:48;;;;;;;7.10;3.10;;;;;;;10.00;41.18;101526.27;111081;1232;74148;-88
2023/05/07 04:45:15;;;;;;;5.70;3.00;;;;;;;10.01;41.19;101521.50;110902;1237;73692;-89
2023/05/07 04:47:43;;;;;;;5.10;3.20;;;;;;;10.02;41.25;101525.38;111010;1233;73452;-89
2023/05/07 04:50:10;;;;;;;5.00;3.20;;;;;;;10.06;41.40;101521.73;111117;1233;61082;-89
2023/05/07 04:52:38;;;;;;;5.50;3.20;;;;;;;10.09;41.47;101519.62;111121;1233;61222;-90
2023/05/07 04:55:08;;;;;;;4.70;2.90;;;;;;;10.13;41.21;101515.32;110936;1234;73459;-89
2023/05/07 04:57:40;;;;;;;6.30;3.00;;;;;;;10.17;41.23;101514.45;111077;1234;73236;-90
2023/05/07 05:00:11;;;;;;;5.50;2.80;;;;;;;10.22;41.01;101518.61;111013;1234;73041;-89
2023/05/07 05:02:39;;;;;;;7.20;3.40;;;;;;;10.27;40.84;101516.11;111178;1233;61143;-87
2023/05/07 05:05:07;;;;;;;5.40;2.60;;;;;;;10.33;40.83;101513.69;110922;1239;61315;-88
2023/05/07 05:07:35;;;;;;;6.30;3.40;;;;;;;10.41;40.83;101515.54;111048;1233;74423;-90
2023/05/07 05:10:03;;;;;;;6.00;3.00;;;;;;;10.46;40.47;101512.40;111168;1233;71530;-89
2023/05/07 05:12:31;;;;;;;5.30;3.10;;;;;;;10.51;40.58;101505.02;111129;1237;70659;-90
2023/05/07 05:14:58;;;;;;;7.20;3.20;;;;;;;10.57;40.41;101501.47;110896;1233;172585;-88
2023/05/07 05:17:25;;;;;;;5.80;2.80;;;;;;;10.63;40.09;101501.08;111126;1237;61185;-87
2023/05/07 05:19:52;;;;;;;4.50;2.60;;;;;;;10.71;39.89;101500.02;111056;1234;73756;-87
2023/05/07 05:22:19;;;;;;;5.90;3.20;;;;;;;10.77;40.04;101500.31;111177;1233;72775;-87
2023/05/07 05:24:49;;;;;;;6.20;3.40;;;;;;;10.83;39.63;101496.84;111082;1232;71249;-89
2023/05/07 05:27:16;;;;;;;6.60;3.00;;;;;;;10.87;39.31;101499.59;111060;1237;61205;-90
2023/05/07 05:29:42;;;;;;;6.70;3.80;;;;;;;10.95;39.47;101499.07;111013;1233;59549;-90
2023/05/07 05:32:10;;;;;;;5.40;3.50;;;;;;;11.04;39.08;101499.45;111100;1234;72943;-89
2023/05/07 05:34:37;;;;;;;6.00;3.70;;;;;;;11.14;39.14;101497.78;111038;1234;72513;-90
2023/05/07 05:37:05;;;;;;;5.70;3.50;;;;;;;11.19;38.70;101487.72;110938;1233;70757;-90
2023/05/07 05:39:32;;;;;;;4.70;3.00;;;;;;;11.23;38.61;101485.13;111058;1237;61127;-90
2023/05/07 05:41:59;;;;;;;7.30;4.00;;;;;;;11.25;38.09;101481.86;111092;1233;61617;-89
2023/05/07 05:44:26;;;;;;;5.70;3.30;;;;;;;11.27;38.00;101481.16;111160;1233;74569;-87
2023/05/07 05:46:57;;;;;;;7.60;3.20;;;;;;;11.35;38.17;101482.11;111139;1235;73769;-90
2023/05/07 05:49:25;;;;;;;6.50;3.30;;;;;;;11.49;38.20;101479.62;111159;1234;71282;-89
2023/05/07 05:51:52;;;;;;;5.00;2.50;;;;;;;11.62;37.85;101483.48;111120;1233;61085;-88
2023/05/07 05:54:20;;;;;;;4.30;2.60;;;;;;;11.73;37.22;101488.50;111099;1233;61108;-89
2023/05/07 05:56:47;;;;;;;4.90;3.20;;;;;;;11.81;36.85;101486.82;111105;1235;74717;-89
2023/05/07 05:59:15;;;;;;;4.80;2.80;;;;;;;11.88;36.69;101482.69;111108;1235;73545;-90
2023/05/07 06:01:42;;;;;;;4.20;2.60;;;;;;;12.00;36.76;101482.66;110996;1233;73029;-89
2023/05/07 06:04:10;;;;;;;4.80;2.40;;;;;;;12.13;36.69;101477.55;111031;1237;61142;-88
2023/05/07 06:06:37;;;;;;;5.20;2.70;;;;;;;12.28;36.02;101472.54;110892;1234;61315;-87
2023/05/07 06:09:04;;;;;;;4.60;2.50;;;;;;;12.40;35.52;101474.38;111133;1233;75081;-89
2023/05/07 06:11:36;;;;;;;4.50;2.50;;;;;;;12.52;35.41;101471.42;111121;1234;71957;-89
2023/05/07 06:14:04;;;;;;;5.40;2.80;;;;;;;12.62;35.14;101474.51;110935;1236;72950;-88
2023/05/07 06:16:32;;;;;;;4.80;2.40;;;;;;;12.71;35.06;101472.59;111189;1234;60958;-90
2023/05/07 06:19:00;;;;;;;4.00;2.50;;;;;;;12.75;34.67;101470.48;111130;1234;61112;-86
2023/05/07 06:21:27;;;;;;;4.20;2.70;;;;;;;12.78;34.66;101469.08;111078;1234;74766;-87
2023/05/07 06:23:54;;;;;;;5.70;2.90;;;;;;;12.83;34.95;101468.52;111041;1234;73821;-85
2023/05/07 06:26:21;;;;;;;6.10;2.70;;;;;;;12.96;34.80;101467.47;111198;1233;72452;-89
2023/05/07 06:28:49;;;;;;;3.90;2.30;;;;;;;13.07;34.19;101468.63;111136;1233;61241;-89
2023/05/07 06:31:22;;;;;;;4.50;2.50;;;;;;;13.10;33.33;101462.39;111130;1233;60268;-87
2023/05/07 06:33:55;;;;;;;4.30;2.40;;;;;;;13.10;33.36;101469.80;110990;1238;74219;-88
2023/05/07 06:36:22;;;;;;;4.20;2.20;;;;;;;13.13;32.80;101474.66;111198;1234;70960;-87
2023/05/07 06:38:49;;;;;;;4.70;2.10;;;;;;;13.15;32.13;101476.38;111105;1233;72722;-90
2023/05/07 06:41:17;;;;;;;5.00;2.10;;;;;;;13.14;32.22;101478.63;111063;1234;60997;-90
2023/05/07 06:43:44;;;;;;;5.60;2.50;;;;;;;13.12;32.39;101478.33;110989;1232;60466;-91
2023/05/07 06:46:24;;;;;;;5.10;2.30;;;;;;;13.11;32.25;101476.98;111179;1234;73817;-89
2023/05/07 06:48:52;;;;;;;4.00;2.20;;;;;;;13.16;32.39;101480.57;111156;1234;72850;-90
2023/05/07 06:51:19;;;;;;;4.20;1.90;;;;;;;13.17;31.83;101481.52;110986;1234;73745;-89
2023/05/07 06:53:47;;;;;;;4.20;1.90;;;;;;;13.18;31.77;101480.34;111101;1233;61051;-87
2023/05/07 06:56:14;;;;;;;3.20;1.90;;;;;;;13.21;31.73;101478.87;111057;1234;61236;-90
2023/05/07 06:58:41;;;;;;;3.20;1.90;;;;;;;13.22;31.96;101481.39;110937;1234;74528;-92
2023/05/07 07:01:09;;;;;;;2.50;1.60;;;;;;;13.24;31.88;101476.61;111124;1233;70707;-90
2023/05/07 07:03:36;;;;;;;4.80;1.80;;;;;;;13.28;31.71;101477.58;111073;1233;71629;-88
2023/05/07 07:06:03;;;;;;;3.70;1.80;;;;;;;13.29;31.58;101476.20;110911;1239;61159;-89
2023/05/07 07:08:30;;;;;;;2.80;1.40;;;;;;;13.29;30.94;101479.04;110958;1233;61131;-91
2023/05/07 07:10:57;;;;;;;1.90;1.20;;;;;;;13.27;30.63;101473.54;110950;1233;73813;-88
2023/05/07 07:13:25;;;;;;;3.00;1.70;;;;;;;13.29;30.23;101476.58;111197;1235;72372;-90
2023/05/07 07:15:54;;;;;;;2.60;1.60;;;;;;;13.32;29.69;101470.15;111099;1234;73284;-90
2023/05/07 07:18:22;;;;;;;2.80;1.30;;;;;;;13.36;29.85;101474.55;111015;1237;61092;-92
2023/05/07 07:20:53;;;;;;;1.80;1.20;;;;;;;13.42;29.63;101472.08;111094;1234;61171;-88
2023/05/07 07:23:23;;;;;;;2.80;1.30;;;;;;;13.45;29.21;101468.95;111097;1234;73586;-88
2023/05/07 07:25:50;;;;;;;2.60;1.20;;;;;;;13.46;28.48;101464.77;110892;1234;72625;-87
2023/05/07 07:28:20;;;;;;;3.00;1.40;;;;;;;13.50;28.72;101461.75;111045;1233;72731;-88
2023/05/07 07:30:48;;;;;;;3.90;1.60;;;;;;;13.57;28.73;101466.98;111137;1234;61229;-90
2023/05/07 07:33:16;;;;;;;1.90;1.10;;;;;;;13.66;28.32;101468.77;110953;1236;61172;-88
2023/05/07 07:35:43;;;;;;;2.00;1.20;;;;;;;13.72;27.91;101472.00;111000;1233;74353;-92
2023/05/07 07:38:11;;;;;;;2.80;1.50;;;;;;;13.75;27.85;101472.65;111074;1234;73813;-89
2023/05/07 07:40:39;;;;;;;3.00;1.40;;;;;;;13.81;28.24;101473.35;110960;1234;73663;-88
2023/05/07 07:43:06;;;;;;;3.00;1.20;;;;;;;13.92;28.48;101474.03;111110;1234;61670;-90
2023/05/07 07:45:34;;;;;;;3.40;1.20;;;;;;;14.07;28.22;101475.91;110948;1233;61084;-88
2023/05/07 07:48:01;;;;;;;3.60;1.30;;;;;;;14.16;27.90;101477.70;111162;1233;74807;-89
2023/05/07 07:50:30;;;;;;;3.60;1.40;;;;;;;14.23;27.87;101476.02;111172;1234;73610;-91
2023/05/07 07:53:13;;;;;;;3.10;1.10;;;;;;;14.28;27.71;101474.29;111162;1234;71871;-88
2023/05/07 07:55:40;;;;;;;3.60;1.30;;;;;;;14.33;27.86;101476.73;111109;1236;61286;-89
2023/05/07 07:58:07;;;;;;;3.00;1.50;;;;;;;14.34;27.95;101473.67;111082;1233;61117;-90
2023/05/07 08:00:35;;;;;;;2.40;1.20;;;;;;;14.37;28.15;101473.64;110944;1238;74799;-91
2023/05/07 08:03:03;;;;;;;2.40;1.30;;;;;;;14.42;27.84;101476.84;111147;1234;71657;-91
2023/05/07 08:05:33;;;;;;;2.10;1.20;;;;;;;14.42;27.60;101473.46;111136;1234;72650;-90
2023/05/07 08:08:00;;;;;;;2.00;1.20;;;;;;;14.39;27.36;101470.86;111150;1234;61188;-86
2023/05/07 08:10:34;;;;;;;2.90;1.20;;;;;;;14.35;27.31;101471.00;111200;1233;61766;-90
2023/05/07 08:13:05;;;;;;;3.10;1.20;;;;;;;14.33;27.23;101473.23;111002;1232;74927;-89
2023/05/07 08:15:33;;;;;;;3.80;1.40;;;;;;;14.26;26.92;101469.92;111175;1233;71787;-91
2023/05/07 08:18:01;;;;;;;2.60;1.20;;;;;;;14.15;26.92;101470.71;111149;1237;71001;-87
2023/05/07 08:20:30;;;;;;;2.60;1.30;;;;;;;14.12;27.55;101469.30;110911;1233;61163;-88
2023/05/07 08:22:57;;;;;;;2.30;1.10;;;;;;;14.11;27.81;101473.52;110971;1233;61095;-89
2023/05/07 08:25:26;;;;;;;2.50;1.30;;;;;;;14.16;28.19;101476.41;111084;1237;75490;-90
2023/05/07 08:27:54;;;;;;;3.20;1.10;;;;;;;14.25;27.80;101477.23;111133;1235;70692;-90
2023/05/07 08:30:23;;;;;;;3.20;1.20;;;;;;;14.30;27.47;101475.55;111137;1233;73292;-90
2023/05/07 08:32:51;;;;;;;2.70;1.30;;;;;;;14.35;27.39;101471.90;111112;1234;61234;-89
2023/05/07 08:35:18;;;;;;;2.90;1.20;;;;;;;14.37;27.21;101471.38;111154;1233;61139;-89
2023/05/07 08:37:46;;;;;;;3.00;1.20;;;;;;;14.42;26.76;101477.43;110982;1234;74362;-88
2023/05/07 08:40:15;;;;;;;2.70;1.30;;;;;;;14.47;26.55;101469.09;110898;1234;73111;-89
2023/05/07 08:42:43;;;;;;;2.80;1.40;;;;;;;14.45;26.91;101464.98;111068;1233;72632;-89
2023/05/07 08:45:10;;;;;;;2.40;1.20;;;;;;;14.44;27.07;101464.91;111188;1234;61321;-88
2023/05/07 08:47:47;;;;;;;5.20;1.70;;;;;;;14.48;27.23;101462.27;110975;1234;60766;-88
2023/05/07 08:50:15;;;;;;;2.80;1.20;;;;;;;14.47;26.81;101467.47;111137;1236;73689;-89
2023/05/07 08:52:42;;;;;;;3.40;1.40;;;;;;;14.43;26.66;101468.84;111126;1234;71700;-89
2023/05/07 08:55:10;;;;;;;2.70;1.40;;;;;;;14.42;26.54;101468.95;111126;1234;71603;-90
2023/05/07 08:57:37;;;;;;;2.70;1.30;;;;;;;14.44;26.79;101469.21;110879;1235;60430;-88
2023/05/07 09:00:09;;;;;;;2.80;1.20;;;;;;;14.53;27.05;101468.86;110907;1235;61057;-89
2023/05/07 09:02:37;;;;;;;2.50;1.20;;;;;;;14.62;26.48;101469.77;110950;1234;74865;-89
2023/05/07 09:05:05;;;;;;;2.40;1.20;;;;;;;14.72;26.36;101464.88;110961;1234;71925;-89
2023/05/07 09:07:33;;;;;;;2.70;1.20;;;;;;;14.82;26.11;101465.61;110827;1236;72581;-89
2023/05/07 09:10:05;;;;;;;2.20;1.20;;;;;;;14.87;26.29;101468.28;111108;1236;61007;-87
2023/05/07 09:12:35;;;;;;;4.00;1.50;;;;;;;14.96;26.27;101467.55;111123;1236;61769;-91
2023/05/07 09:15:05;;;;;;;3.50;1.40;;;;;;;15.09;26.44;101468.08;111055;1235;73099;-88
2023/05/07 09:17:32;;;;;;;2.50;1.30;;;;;;;15.24;26.64;101475.05;110998;1238;71659;-88
2023/05/07 09:20:04;;;;;;;2.80;1.20;;;;;;;15.35;25.89;101474.50;111110;1234;72645;-86
2023/05/07 09:22:36;;;;;;;3.30;1.50;;;;;;;15.33;24.95;101472.08;110990;1234;61775;-88
2023/05/07 09:25:06;;;;;;;2.70;1.30;;;;;;;15.23;24.79;101467.42;111097;1233;61059;-89
2023/05/07 09:27:33;;;;;;;1.40;1.10;;;;;;;15.10;24.38;101470.77;111079;1237;73420;-89
2023/05/07 09:30:07;;;;;;;1.60;1.00;;;;;;;14.96;24.54;101468.48;110904;1235;72803;-90
2023/05/07 09:32:40;;;;;;;4.20;1.40;;;;;;;14.88;24.50;101469.89;110981;1234;72651;-92
2023/05/07 09:35:21;;;;;;;3.10;1.30;;;;;;;14.78;24.91;101474.42;111088;1234;61211;-88
2023/05/07 09:37:59;;;;;;;1.90;1.20;;;;;;;14.70;24.56;101478.96;110959;1233;61115;-87
2023/05/07 09:40:32;;;;;;;2.80;1.10;;;;;;;14.69;24.92;101476.96;111111;1235;74806;-89
2023/05/07 09:43:11;;;;;;;2.60;1.30;;;;;;;14.72;25.54;101482.36;111183;1234;73805;-91
2023/05/07 09:45:39;;;;;;;2.60;1.30;;;;;;;14.71;24.93;101478.64;111207;1237;72609;-87
2023/05/07 09:48:07;;;;;;;3.40;1.40;;;;;;;14.67;25.36;101484.54;110908;1233;61002;-90
2023/05/07 09:50:49;;;;;;;4.00;1.20;;;;;;;14.65;25.60;101482.80;111040;1233;61127;-89
2023/05/07 09:53:17;;;;;;;3.80;1.40;;;;;;;14.66;25.71;101478.02;111073;1233;73505;-89
2023/05/07 09:55:45;;;;;;;2.90;1.30;;;;;;;14.73;25.48;101466.34;110937;1234;72873;-92
2023/05/07 09:58:12;;;;;;;2.10;1.10;;;;;;;14.76;25.37;101465.86;110954;1234;70936;-89
2023/05/07 10:00:39;;;;;;;2.70;1.10;;;;;;;14.79;25.78;101463.45;110892;1234;61088;-90
2023/05/07 10:03:08;;;;;;;4.00;1.30;;;;;;;14.83;25.64;101457.28;111165;1234;61085;-90
2023/05/07 10:05:44;;;;;;;3.20;1.50;;;;;;;14.89;25.41;101455.27;110980;1234;75722;-89
2023/05/07 10:08:13;;;;;;;2.40;1.50;;;;;;;15.01;25.48;101456.64;111044;1234;71728;-91
2023/05/07 10:10:41;;;;;;;4.50;1.40;;;;;;;15.08;24.73;101454.41;110813;1240;70830;-89
2023/05/07 10:13:11;;;;;;;3.00;1.10;;;;;;;15.10;24.90;101457.59;111130;1234;61112;-89
2023/05/07 10:15:40;;;;;;;2.60;1.30;;;;;;;15.16;24.80;101452.28;111144;1234;61117;-92
2023/05/07 10:18:09;;;;;;;2.60;1.40;;;;;;;15.13;24.19;101453.34;110930;1232;74933;-89
2023/05/07 10:20:37;;;;;;;5.10;1.40;;;;;;;15.08;24.43;101450.09;110848;1234;70886;-91
2023/05/07 10:23:08;;;;;;;2.20;1.10;;;;;;;15.04;24.43;101449.55;111102;1235;73090;-87
2023/05/07 10:25:41;;;;;;;2.90;1.30;;;;;;;15.03;24.50;101450.94;110857;1239;61135;-87
2023/05/07 10:28:14;;;;;;;3.00;1.30;;;;;;;15.06;24.82;101450.30;110876;1234;61091;-88
2023/05/07 10:31:22;;;;;;;4.30;1.20;;;;;;;15.12;24.70;101447.10;110913;1235;72279;-90
2023/05/07 10:33:50;;;;;;;2.60;1.10;;;;;;;15.22;24.33;101445.23;110706;1234;72772;-90
2023/05/07 10:36:18;;;;;;;2.70;1.30;;;;;;;15.30;24.25;101440.79;110943;1234;71999;-89
2023/05/07 10:38:46;;;;;;;3.00;1.30;;;;;;;15.34;24.24;101436.86;110906;1234;61277;-91
2023/05/07 10:41:15;;;;;;;2.30;1.00;;;;;;;15.38;24.36;101435.63;110951;1239;61145;-87
2023/05/07 10:43:43;;;;;;;1.80;1.20;;;;;;;15.46;24.59;101437.68;110990;1234;75550;-89
2023/05/07 10:46:16;;;;;;;2.00;1.10;;;;;;;15.53;24.31;101432.47;111150;1236;71898;-88
2023/05/07 10:49:05;;;;;;;2.90;1.00;;;;;;;15.62;24.21;101428.22;111061;1234;73828;-88
2023/05/07 10:51:47;;;;;;;4.80;1.30;;;;;;;15.82;24.54;101418.59;110941;1233;61131;-88
2023/05/07 10:54:19;;;;;;;4.00;1.40;;;;;;;15.99;24.08;101416.85;110908;1234;61192;-88
2023/05/07 10:56:54;;;;;;;2.30;1.20;;;;;;;16.11;24.31;101414.95;111098;1234;73617;-88
2023/05/07 10:59:31;;;;;;;2.50;1.10;;;;;;;16.16;24.64;101415.73;111125;1234;73145;-92
2023/05/07 11:02:03;;;;;;;2.30;1.30;;;;;;;16.13;24.00;101418.77;111135;1234;70781;-89
2023/05/07 11:04:38;;;;;;;2.30;1.20;;;;;;;16.06;23.91;101414.52;111134;1235;61223;-90
2023/05/07 11:07:31;;;;;;;2.10;1.10;;;;;;;15.95;23.66;101405.97;111113;1236;61079;-90
2023/05/07 11:10:12;;;;;;;2.50;1.20;;;;;;;15.85;23.69;101398.17;110992;1235;74730;-89
2023/05/07 11:12:51;;;;;;;3.40;1.40;;;;;;;15.83;23.41;101406.70;111040;1234;72552;-92
2023/05/07 11:15:36;;;;;;;2.70;1.20;;;;;;;15.80;23.77;101406.48;110966;1235;71560;-89
2023/05/07 11:18:05;;;;;;;1.90;1.20;;;;;;;15.80;23.89;101406.48;110773;1233;61573;-88
2023/05/07 11:20:52;;;;;;;1.90;1.10;;;;;;;15.82;23.67;101407.92;111017;1234;59543;-86
2023/05/07 11:23:34;;;;;;;1.90;1.20;;;;;;;15.73;22.94;101411.33;110901;1235;73987;-89
2023/05/07 11:26:16;;;;;;;2.00;1.10;;;;;;;15.55;22.68;101417.98;111070;1237;72083;-89
2023/05/07 11:28:43;;;;;;;2.80;1.40;;;;;;;15.45;23.15;101417.71;111023;1237;72839;-88
2023/05/07 11:31:10;;;;;;;2.60;1.10;;;;;;;15.41;22.95;101418.40;110924;1235;61271;-92